Macamic, Canada
Current Conditions -  °F | °C
As of 4:00 AM on Monday 24 Nov 2014 (Local Time) from CYUY Reporting Station
Light Rain Light Rain  
Wind Chill: 35°   Ceiling: 400
Heat Index: 41°   Visibility: 4mi
Dew Point: 39°   Wind: 9mph
Humidity: 93%   Direction: 130°SE
Pressure: 29.37"   Gusts: NA
Location:  48.77°N, 79°W
Report Text: CYUY 240900Z 13008KT 4SM -RA BR FEW002 OVC004 05/04 A2937 RMK SF2SF6 PRESFR SLP958
Loading
Personal Weather Stations






























Interactive Weather Map New forecast layout! Learn more

10-Day Weather Forecast

Advertisements
Track Severe Weather on mobile